메인 페이지
METAR-TAF:

METAR-TAF

공항 :

엘살바도르 국제공항

엘살바도르, 엘살바도르

위도: 13-26N, 경도: 089-03W, 고도: 25m

현재 날씨관측

예보는 44분 전, 22:50시(UTC)에 발표되었습니다.
4kt북동풍과 동남동풍을 오가는
온도 25°C
습도 94%
기압 1011 hPa
시정: 3000m
고도 700ft 상공 구름 보통
고도 2000ft 상공 구름 많음
고도 5000ft 상공 흐림
강한비

METAR: MSLP 012250Z 08004KT 040V120 3000 +RA SCT007 BKN020 OVC050 25/24 Q1010 A2984 TEMPO 1000 +RA

시각: 17:34 (23:34 UTC)

예보

예보는 8 시간 9분 전, 15:25시(UTC)에 발표되었습니다.
예보 대상 시간: 01일 18시부터 02일 18시까지 (UTC)
남남서8kt
시정: 3000m
고도 1700ft 상공 구름 보통
고도 2700ft 상공 구름 많음

TAF: MSLP 011525Z 0118/0218 20008KT 3000 RA SCT017 BKN027 TX27/0118Z TN23/0212Z

4,000개 이상의 공항 관측 자료 및 예보 (METAR 및 TAF 보고).

지도상에서 검색 가능한 기상관측소가 노란 점과 빨간 점으로 표시되어 있습니다.

기상관측소 명을 보려면 표시 위로 마우스를 이동하세요.

날씨 관측과 예보를 보려면 클릭하세요.

지도 변경 : 확대하려면 엑스 표시가 있는 녹색 버튼, 축소하려면 빼기 표시가 있는 녹색 버튼, 다음 페이지의 지도를 보려면 녹색 화살표를 클릭하세요.


METAR-TAF: